Larkfield, United Kingdom
Current Conditions -  °F | °C
As of 7:20 PM on Saturday 25 Oct 2014 (Local Time) from EGKB Reporting Station
Broken Clouds Broken Clouds  
Wind Chill: 12°   Ceiling: 3300
Heat Index: 12°   Visibility: 6mi
Dew Point:   Wind: 10mph
Humidity: 72%   Direction: 220°SW
Pressure: 30.12"   Gusts: NA
Location:  51.29°N, 0.43°E
Report Text: EGKB 251820Z 22009KT 9999 BKN033 12/07 Q1020
Loading
Personal Weather Stations






























Interactive Weather Map
Tropical Storm Tracking
New forecast layout! Learn more

10-Day Weather Forecast

Advertisements
Track Severe Weather on mobile